• Join FlightAware (Why Join?)
  • Login
  • US Flag 
04:57PM EDT


 

Airport Tracker/Info


-or-


 

Live Flight TrackerFlight Track Log ✈ VH-FGS ✈ 14-Jun-2013 ✈ YCBP / CPD - YPAG / PUG

Flight Track Log - Related Links

Times and Time Zones

All times are in EDT time to prevent confusion due to time zone crossing. See the VH-FGS flight status page for this flight to view local times or setup timezone preferences in your user account.

Time Position Orientation Groundspeed Altitude Reporting Facility
EDT Latitude Longitude Course Direction KTS MPH feet Rate Location/Type
02:29AM -29.1688 134.7859 158° South 23,000  Level Aus ATC (Calculated)
02:29AM -29.2372 134.8170 143° Southeast 23,000  Level Aus ATC (Calculated)
02:31AM -29.2945 134.8657 158° South  Level Estimated
02:32AM -29.3523 134.8913 159° South  Level FlightAware Approximate
02:32AM -29.3742 134.8793 138° Southeast 23,000  Level Aus ATC (Calculated)
02:33AM -29.4101 134.9170 159° South  Level FlightAware Approximate
02:33AM -29.4426 134.9106 360° North 23,000  Level Aus ATC (Calculated)
02:33AM -29.4426 134.9106 158° South 23,000  Level Aus ATC (Calculated)
02:35AM -29.5213 134.9465 158° South  Level FlightAware Approximate
02:36AM -29.5789 134.9729 158° South  Level FlightAware Approximate
02:37AM -29.6365 134.9993 158° South  Level FlightAware Approximate
02:37AM -29.6479 135.0045 360° North 23,000  Level Aus ATC (Calculated)
02:37AM -29.6479 135.0045 360° North 23,000  Level Aus ATC (Calculated)
02:37AM -29.6479 135.0045 158° South 23,000  Level Aus ATC (Calculated)
02:39AM -29.7266 135.0406 158° South  Level FlightAware Approximate
02:40AM -29.7842 135.0671 158° South  Level FlightAware Approximate
02:41AM -29.8417 135.0936 158° South  Level FlightAware Approximate
02:42AM -29.8993 135.1201 158° South  Level FlightAware Approximate
02:43AM -29.9569 135.1467 158° South  Level FlightAware Approximate
02:44AM -30.0144 135.1733 158° South  Level FlightAware Approximate
02:45AM -30.0720 135.1999 158° South  Level FlightAware Approximate
02:45AM -30.0583 135.1935 158° South 23,000  Level Aus ATC (Calculated)
02:47AM -30.1571 135.2393 158° South  Level FlightAware Approximate
02:48AM -30.2146 135.2660 158° South  Level FlightAware Approximate
02:49AM -30.2721 135.2927 158° South  Level FlightAware Approximate
02:50AM -30.3296 135.3195 158° South  Level FlightAware Approximate
02:51AM -30.3872 135.3463 158° South  Level FlightAware Approximate
02:52AM -30.4447 135.3731 158° South  Level FlightAware Approximate
02:53AM -30.5022 135.3999 158° South  Level FlightAware Approximate
02:54AM -30.5597 135.4268 158° South  Level FlightAware Approximate
02:54AM -30.5367 135.4160 158° South 23,000  Level Aus ATC (Calculated)
02:55AM -30.6172 135.4537 158° South  Level FlightAware Approximate
02:56AM -30.6277 135.4586 158° South  Level FlightAware Approximate
02:56AM -30.6733 135.4800 158° South 23,000  Level Aus ATC (Calculated)
02:57AM -30.6852 135.4856 158° South  Level FlightAware Approximate
02:58AM -30.7327 135.5079 158° South  Level FlightAware Approximate
02:59AM -30.7901 135.5349 158° South  Level FlightAware Approximate
03:00AM -30.8476 135.5620 158° South  Level FlightAware Approximate
03:01AM -30.9051 135.5890 158° South  Level FlightAware Approximate
03:02AM -30.9625 135.6161 158° South  Level FlightAware Approximate
03:03AM -31.0200 135.6433 158° South  Level FlightAware Approximate
03:04AM -31.0774 135.6705 158° South  Level FlightAware Approximate
03:05AM -31.1349 135.6977 158° South  Level FlightAware Approximate
03:06AM -31.1923 135.7249 158° South  Level FlightAware Approximate
03:07AM -31.2498 135.7522 158° South  Level FlightAware Approximate
03:08AM -31.2193 135.7377 338° Northwest 23,000  Level Aus ATC (Calculated)
03:08AM -31.1923 135.7249 338° Northwest  Level FlightAware Approximate
03:09AM -31.2222 135.7405 140° Southeast  Level FlightAware Approximate
03:09AM -31.2911 135.8079 320° Northwest 23,000  Level Aus ATC (Calculated)
03:10AM -31.2698 135.7870 140° Southeast  Level FlightAware Approximate
03:11AM -31.3743 135.8894 140° Southeast  Level FlightAware Approximate
03:12AM -31.4218 135.9360 140° Southeast  Level FlightAware Approximate
03:12AM -31.5062 136.0190 230° Southwest 23,000  Level Aus ATC (Calculated)
03:12AM -31.5062 136.0190 140° Southeast 23,000  Level Aus ATC (Calculated)
03:14AM -31.5671 136.0791 140° Southeast  Level FlightAware Approximate
03:15AM -31.6145 136.1259 140° Southeast  Level FlightAware Approximate
03:16AM -31.6619 136.1728 140° Southeast  Level FlightAware Approximate
03:17AM -31.7094 136.2197 140° Southeast  Level FlightAware Approximate
03:18AM -31.7568 136.2667 140° Southeast  Level FlightAware Approximate
03:19AM -31.8041 136.3137 140° Southeast  Level FlightAware Approximate
03:20AM -31.7567 136.2667 320° Northwest  Level FlightAware Approximate
03:21AM -31.7931 136.3035 122° Southeast  Level FlightAware Approximate
03:22AM -31.8261 136.3652 122° Southeast  Level FlightAware Approximate
03:23AM -31.8591 136.4271 122° Southeast  Level FlightAware Approximate
03:24AM -31.8920 136.4889 122° Southeast  Level FlightAware Approximate
03:25AM -31.9249 136.5508 122° Southeast  Level FlightAware Approximate
03:26AM -31.9577 136.6128 122° Southeast  Level FlightAware Approximate
03:27AM -31.9906 136.6747 122° Southeast  Level FlightAware Approximate
03:28AM -32.0234 136.7368 122° Southeast  Level FlightAware Approximate
03:29AM -32.0561 136.7989 122° Southeast  Level FlightAware Approximate
03:30AM -32.0889 136.8610 122° Southeast  Level FlightAware Approximate
03:31AM -32.1216 136.9232 122° Southeast  Level FlightAware Approximate
03:32AM -32.1543 136.9854 122° Southeast  Level FlightAware Approximate
03:33AM -32.1869 137.0476 122° Southeast  Level FlightAware Approximate
03:34AM -32.2195 137.1099 122° Southeast  Level FlightAware Approximate
03:35AM -32.2521 137.1723 122° Southeast  Level FlightAware Approximate
03:36AM -32.2846 137.2347 122° Southeast  Level FlightAware Approximate
03:37AM -32.3172 137.2971 122° Southeast  Level FlightAware Approximate
03:38AM -32.3496 137.3596 122° Southeast  Level FlightAware Approximate
03:39AM -32.3821 137.4221 122° Southeast  Level FlightAware Approximate
03:40AM -32.4145 137.4847 122° Southeast  Level FlightAware Approximate
03:41AM -32.4469 137.5473 122° Southeast  Level FlightAware Approximate
03:42AM -32.4793 137.6099 121° Southeast  Level FlightAware Approximate
03:43AM -32.5116 137.6726 121° Southeast  Level FlightAware Approximate
03:44AM -32.5069 137.7168 34° Northeast  Level FlightAware Approximate
03:45AM -32.5069 137.7167 34° Northeast  Level Estimated
03:46AM -32.5069 137.7167 34° Northeast  Level Estimated
03:47AM -32.5069 137.7168 34° Northeast  Level FlightAware Approximate
03:48AM -32.5069 137.7167 34° Northeast  Level Estimated
03:49AM -32.5069 137.7167 34° Northeast  Level Estimated
03:50AM -32.5069 137.7167 34° Northeast  Level Estimated
03:51AM -32.5069 137.7167 34° Northeast  Level Estimated
03:52AM -32.5069 137.7167 34° Northeast  Level Estimated
03:53AM -32.5069 137.7167 34° Northeast  Level Estimated
03:54AM -32.5069 137.7167 34° Northeast  Level Estimated
03:55AM -32.5069 137.7167 34° Northeast  Level Estimated